Time;durP1;ratioP1;P1;durP2;ratioP2;P2;SDS_P1;SDS_P2;PMS_P1;PMS_P2;Temp;Humidity;BMP_temperature;BMP_pressure;BME280_temperature;BME280_humidity;BME280_pressure;Samples;Min_cycle;Max_cycle;Signal;HPM_P1;HPM_P2
2022/05/02 00:00:15;;;;;;;16.70;11.55;;;12.00;87.60;;;;;;5064796;28;20182;-69
2022/05/02 00:02:41;;;;;;;16.83;11.48;;;12.00;87.80;;;;;;5067238;28;20179;-70
2022/05/02 00:05:08;;;;;;;18.33;11.52;;;12.00;88.10;;;;;;5062748;28;20700;-71
2022/05/02 00:07:34;;;;;;;18.35;11.30;;;11.90;88.10;;;;;;5064875;28;20198;-69
2022/05/02 00:10:00;;;;;;;17.77;11.23;;;11.90;88.40;;;;;;5066231;28;20658;-69
2022/05/02 00:12:26;;;;;;;15.70;11.60;;;11.90;88.60;;;;;;5065053;28;20193;-70
2022/05/02 00:14:52;;;;;;;15.20;11.40;;;11.90;88.80;;;;;;5066450;28;20210;-71
2022/05/02 00:17:18;;;;;;;16.13;11.18;;;11.80;88.90;;;;;;5064335;28;20182;-70
2022/05/02 00:19:43;;;;;;;15.77;11.52;;;11.80;89.10;;;;;;5065281;28;20218;-70
2022/05/02 00:22:09;;;;;;;17.33;11.18;;;11.70;89.30;;;;;;5065693;28;20738;-70
2022/05/02 00:24:37;;;;;;;22.58;11.88;;;11.70;90.10;;;;;;5064989;28;20561;-68
2022/05/02 00:27:04;;;;;;;18.35;11.75;;;11.70;89.70;;;;;;5064074;28;21479;-68
2022/05/02 00:29:30;;;;;;;16.02;12.15;;;11.60;89.90;;;;;;5066270;28;20734;-69
2022/05/02 00:31:55;;;;;;;19.45;11.98;;;11.60;90.10;;;;;;5064650;28;20233;-69
2022/05/02 00:34:21;;;;;;;17.38;11.02;;;11.60;90.10;;;;;;5063807;28;20225;-69
2022/05/02 00:36:47;;;;;;;18.52;12.00;;;11.60;90.20;;;;;;5067516;28;20178;-69
2022/05/02 00:39:12;;;;;;;18.10;11.23;;;11.60;90.30;;;;;;5064510;28;20214;-68
2022/05/02 00:41:38;;;;;;;15.15;11.25;;;11.60;90.40;;;;;;5066702;28;20208;-67
2022/05/02 00:44:04;;;;;;;16.52;11.43;;;11.50;90.40;;;;;;5062058;28;20198;-71
2022/05/02 00:46:30;;;;;;;15.60;11.70;;;11.50;90.50;;;;;;5058343;28;20185;-70
2022/05/02 00:48:55;;;;;;;18.90;11.85;;;11.50;90.90;;;;;;5062034;28;20186;-69
2022/05/02 00:51:22;;;;;;;15.20;11.63;;;11.40;90.60;;;;;;5067275;28;20189;-70
2022/05/02 00:53:50;;;;;;;18.00;11.20;;;11.40;90.70;;;;;;5063764;28;20234;-68
2022/05/02 00:56:17;;;;;;;22.42;12.13;;;11.40;90.80;;;;;;5065434;28;20236;-69
2022/05/02 00:58:44;;;;;;;17.50;11.85;;;11.30;90.90;;;;;;5064416;28;20229;-69
2022/05/02 01:01:09;;;;;;;18.88;11.98;;;11.30;90.90;;;;;;5065376;28;20171;-67
2022/05/02 01:03:35;;;;;;;21.42;12.50;;;11.30;91.00;;;;;;5065636;28;20186;-71
2022/05/02 01:08:47;;;;;;;17.42;11.90;;;11.30;91.10;;;;;;5068281;28;20249;-69
2022/05/02 01:11:13;;;;;;;20.33;12.65;;;11.20;91.20;;;;;;5069580;28;20186;-71
2022/05/02 01:13:44;;;;;;;19.13;12.00;;;11.20;91.20;;;;;;5067960;28;20262;-70
2022/05/02 01:16:17;;;;;;;20.27;12.68;;;11.20;91.30;;;;;;5068828;28;20563;-69
2022/05/02 01:18:44;;;;;;;18.10;12.02;;;11.10;91.30;;;;;;5067243;28;20251;-68
2022/05/02 01:21:18;;;;;;;21.23;12.57;;;11.10;91.40;;;;;;5069765;28;20191;-69
2022/05/02 01:23:46;;;;;;;20.92;12.63;;;11.10;91.50;;;;;;5069564;28;20861;-68
2022/05/02 01:26:12;;;;;;;22.27;12.70;;;11.10;91.60;;;;;;5070815;28;20269;-68
2022/05/02 01:28:45;;;;;;;18.20;12.57;;;11.00;91.60;;;;;;5067557;28;20751;-69
2022/05/02 01:31:11;;;;;;;19.27;12.50;;;11.00;91.60;;;;;;5068481;28;20633;-70
2022/05/02 01:33:37;;;;;;;19.33;13.10;;;11.00;91.70;;;;;;5065265;28;20186;-70
2022/05/02 01:36:03;;;;;;;19.02;12.57;;;11.00;91.70;;;;;;5066560;28;20701;-72
2022/05/02 01:38:29;;;;;;;16.27;12.40;;;11.00;91.70;;;;;;5068073;28;20186;-71
2022/05/02 01:40:55;;;;;;;19.65;12.85;;;10.90;91.80;;;;;;5071125;28;20170;-72
2022/05/02 01:43:21;;;;;;;18.67;12.25;;;10.90;91.80;;;;;;5067893;28;20182;-69
2022/05/02 01:45:46;;;;;;;20.42;13.65;;;10.90;91.80;;;;;;5069967;28;20199;-68
2022/05/02 01:48:12;;;;;;;18.52;12.70;;;10.80;91.80;;;;;;5067957;28;20324;-71
2022/05/02 01:50:38;;;;;;;21.52;13.07;;;10.80;91.90;;;;;;5051100;28;20191;-71
2022/05/02 01:53:04;;;;;;;20.40;13.63;;;10.80;91.90;;;;;;5069840;28;20321;-69
2022/05/02 01:55:29;;;;;;;23.30;13.40;;;10.70;91.90;;;;;;5068844;28;20674;-69
2022/05/02 01:57:55;;;;;;;18.85;12.82;;;10.70;92.00;;;;;;5068493;28;20256;-70
2022/05/02 02:00:21;;;;;;;17.73;12.80;;;10.70;92.00;;;;;;5063728;28;20198;-70
2022/05/02 02:02:46;;;;;;;19.77;14.23;;;10.60;92.10;;;;;;5067662;28;20265;-72
2022/05/02 02:07:57;;;;;;;21.98;13.63;;;10.60;92.10;;;;;;5069434;28;20218;-68
2022/05/02 02:10:22;;;;;;;25.48;13.75;;;10.50;92.20;;;;;;5067007;28;20217;-71
2022/05/02 02:12:48;;;;;;;24.20;14.13;;;10.50;92.20;;;;;;5065285;28;20175;-68
2022/05/02 02:15:14;;;;;;;23.45;14.52;;;10.50;92.20;;;;;;5049417;28;20214;-69
2022/05/02 02:17:43;;;;;;;17.33;13.35;;;10.50;92.20;;;;;;5068865;28;20231;-69
2022/05/02 02:20:10;;;;;;;19.55;13.95;;;10.40;92.30;;;;;;5068119;28;20187;-67
2022/05/02 02:22:36;;;;;;;21.02;14.35;;;10.40;92.30;;;;;;5065749;28;20671;-68
2022/05/02 02:25:05;;;;;;;25.58;14.88;;;10.40;92.40;;;;;;5065627;28;20270;-66
2022/05/02 02:27:31;;;;;;;19.75;13.50;;;10.30;92.40;;;;;;5068241;28;20203;-67
2022/05/02 02:29:58;;;;;;;19.67;14.05;;;10.30;92.40;;;;;;5067405;28;21561;-68
2022/05/02 02:32:24;;;;;;;19.17;13.73;;;10.30;92.40;;;;;;5065299;28;21927;-67
2022/05/02 02:34:50;;;;;;;21.63;15.25;;;10.20;92.50;;;;;;5066716;28;20202;-68
2022/05/02 02:37:18;;;;;;;22.05;15.85;;;10.20;92.50;;;;;;5065616;28;20670;-69
2022/05/02 02:39:45;;;;;;;22.13;15.52;;;10.20;92.60;;;;;;5067844;28;20179;-68
2022/05/02 02:42:10;;;;;;;23.85;14.07;;;10.20;92.60;;;;;;5065862;28;20647;-68
2022/05/02 02:44:36;;;;;;;19.77;14.48;;;10.20;92.60;;;;;;5066595;28;20205;-68
2022/05/02 02:47:02;;;;;;;22.83;14.35;;;10.10;92.60;;;;;;5068748;28;20240;-69
2022/05/02 02:49:28;;;;;;;20.15;13.52;;;10.10;92.70;;;;;;5067694;28;20231;-69
2022/05/02 02:51:54;;;;;;;21.95;14.63;;;10.10;92.70;;;;;;5068693;28;20194;-69
2022/05/02 02:54:20;;;;;;;17.83;13.80;;;10.00;92.70;;;;;;5066625;28;20664;-70
2022/05/02 02:56:46;;;;;;;21.13;14.05;;;10.00;92.70;;;;;;5068925;28;20183;-70
2022/05/02 02:59:12;;;;;;;22.30;14.35;;;10.00;92.70;;;;;;5062050;28;20194;-70
2022/05/02 03:01:39;;;;;;;18.92;14.07;;;9.90;92.70;;;;;;5067712;28;20256;-71
2022/05/02 03:06:48;;;;;;;22.85;14.45;;;9.90;92.80;;;;;;5067328;28;20655;-69
2022/05/02 03:09:14;;;;;;;20.35;13.90;;;9.90;92.80;;;;;;5064491;28;20194;-68
2022/05/02 03:11:40;;;;;;;22.35;14.35;;;9.90;92.90;;;;;;5065727;28;20669;-70
2022/05/02 03:14:06;;;;;;;22.35;13.60;;;9.80;92.90;;;;;;5063841;28;20667;-70
2022/05/02 03:16:32;;;;;;;21.70;13.73;;;9.80;92.90;;;;;;5066271;28;20197;-69
2022/05/02 03:18:57;;;;;;;20.23;14.07;;;9.80;92.90;;;;;;5064328;28;20179;-70
2022/05/02 03:21:23;;;;;;;19.95;14.35;;;9.70;92.90;;;;;;5067141;28;20170;-71
2022/05/02 03:23:48;;;;;;;19.67;13.70;;;9.70;93.00;;;;;;5067532;28;20639;-69
2022/05/02 03:26:15;;;;;;;20.90;14.23;;;9.70;93.10;;;;;;5064628;28;20186;-69
2022/05/02 03:28:40;;;;;;;24.95;14.48;;;9.70;93.10;;;;;;5066471;28;20198;-69
2022/05/02 03:31:06;;;;;;;23.20;13.93;;;9.70;93.20;;;;;;5064057;28;20230;-70
2022/05/02 03:33:32;;;;;;;23.40;14.35;;;9.70;93.20;;;;;;5067980;28;20179;-72
2022/05/02 03:35:57;;;;;;;20.23;13.77;;;9.70;93.20;;;;;;5064830;28;20210;-71
2022/05/02 03:38:23;;;;;;;21.08;13.30;;;9.70;93.30;;;;;;5066665;28;20214;-69
2022/05/02 03:40:49;;;;;;;21.98;14.18;;;9.70;93.30;;;;;;5066504;28;20190;-68
2022/05/02 03:43:15;;;;;;;18.98;13.60;;;9.60;93.30;;;;;;5062399;28;20287;-69
2022/05/02 03:45:41;;;;;;;20.33;14.43;;;9.60;93.40;;;;;;5066448;28;20190;-68
2022/05/02 03:48:07;;;;;;;20.95;13.80;;;9.60;93.40;;;;;;5064614;28;20273;-70
2022/05/02 03:50:32;;;;;;;18.92;12.95;;;9.60;93.40;;;;;;5061362;28;20194;-69
2022/05/02 03:52:58;;;;;;;18.58;12.75;;;9.50;93.50;;;;;;5065076;28;20585;-69
2022/05/02 03:55:24;;;;;;;20.70;13.00;;;9.60;93.50;;;;;;5048277;28;20744;-69
2022/05/02 03:57:50;;;;;;;20.40;13.80;;;9.50;93.50;;;;;;5065813;28;20181;-70
2022/05/02 04:00:16;;;;;;;21.00;14.35;;;9.50;93.50;;;;;;5058260;28;20182;-71
2022/05/02 04:02:42;;;;;;;20.45;13.50;;;9.50;93.60;;;;;;5065074;28;20689;-71
2022/05/02 04:05:08;;;;;;;19.48;13.38;;;9.50;93.60;;;;;;5065141;28;20221;-68
2022/05/02 04:07:34;;;;;;;21.67;13.68;;;9.40;93.60;;;;;;5062174;28;20539;-70
2022/05/02 04:10:00;;;;;;;19.42;13.60;;;9.40;93.60;;;;;;5066431;28;20187;-71
2022/05/02 04:12:27;;;;;;;20.10;14.13;;;9.40;93.70;;;;;;5063540;28;20195;-71
2022/05/02 04:14:52;;;;;;;24.90;14.52;;;9.40;93.80;;;;;;5066493;28;20213;-72
2022/05/02 04:17:18;;;;;;;21.83;14.20;;;9.40;93.80;;;;;;5046125;28;20182;-72
2022/05/02 04:19:44;;;;;;;20.40;14.68;;;9.30;93.90;;;;;;5063834;28;20265;-70
2022/05/02 04:22:09;;;;;;;24.02;13.80;;;9.30;93.90;;;;;;5061801;28;20229;-71
2022/05/02 04:24:35;;;;;;;22.83;14.60;;;9.30;94.00;;;;;;5062962;28;20659;-70
2022/05/02 04:27:01;;;;;;;25.23;15.00;;;9.30;94.00;;;;;;5063461;28;20558;-70
2022/05/02 04:29:26;;;;;;;25.85;14.48;;;9.20;94.00;;;;;;5065246;28;20643;-69
2022/05/02 04:31:52;;;;;;;26.42;15.25;;;9.20;94.10;;;;;;5064116;28;20246;-73
2022/05/02 04:34:18;;;;;;;23.35;15.18;;;9.30;94.20;;;;;;5065105;28;20206;-73
2022/05/02 04:36:43;;;;;;;22.45;14.55;;;9.30;94.20;;;;;;5065070;28;20179;-70
2022/05/02 04:39:09;;;;;;;24.23;15.05;;;9.20;94.20;;;;;;5064165;28;20206;-68
2022/05/02 04:41:35;;;;;;;22.85;14.77;;;9.30;94.30;;;;;;5063241;28;20182;-69
2022/05/02 04:44:00;;;;;;;29.98;14.65;;;9.20;94.30;;;;;;5069308;28;20190;-69
2022/05/02 04:46:27;;;;;;;26.27;15.57;;;9.30;94.40;;;;;;5067810;28;22267;-69
2022/05/02 04:48:53;;;;;;;22.80;15.05;;;9.30;94.40;;;;;;5063275;28;20193;-68
2022/05/02 04:51:18;;;;;;;25.02;15.40;;;9.20;94.40;;;;;;5064618;28;20187;-68
2022/05/02 04:53:44;;;;;;;22.88;15.52;;;9.20;94.50;;;;;;5066267;28;20191;-67
2022/05/02 04:56:10;;;;;;;22.88;15.20;;;9.20;94.50;;;;;;5070174;28;20210;-69
2022/05/02 04:58:36;;;;;;;26.02;15.13;;;9.30;94.60;;;;;;5068374;28;20188;-67
2022/05/02 05:01:06;;;;;;;24.10;16.65;;;9.30;94.70;;;;;;5069612;28;20285;-68
2022/05/02 05:03:32;;;;;;;22.13;15.45;;;9.30;94.70;;;;;;5066905;28;20179;-68
2022/05/02 05:05:57;;;;;;;25.15;15.88;;;9.30;94.80;;;;;;5059640;28;20213;-69
2022/05/02 05:08:23;;;;;;;24.90;15.75;;;9.30;94.80;;;;;;5068189;28;20202;-67
2022/05/02 05:10:57;;;;;;;22.33;15.60;;;9.40;94.90;;;;;;5065581;28;20225;-69
2022/05/02 05:13:26;;;;;;;23.42;15.77;;;9.40;95.00;;;;;;5066604;28;20202;-68
2022/05/02 05:16:30;;;;;;;25.42;17.23;;;9.40;95.00;;;;;;5068855;28;20211;-68
2022/05/02 05:19:08;;;;;;;24.45;15.77;;;9.40;95.10;;;;;;5066342;28;20201;-68
2022/05/02 05:22:32;;;;;;;22.45;15.63;;;9.50;95.20;;;;;;5067341;28;20186;-69
2022/05/02 05:25:01;;;;;;;21.70;15.85;;;9.50;95.20;;;;;;5066752;28;20202;-67
2022/05/02 05:27:36;;;;;;;21.60;15.98;;;9.50;95.30;;;;;;5065419;28;20209;-67
2022/05/02 05:30:05;;;;;;;22.75;16.40;;;9.50;95.30;;;;;;5068099;28;20634;-67
2022/05/02 05:32:46;;;;;;;26.10;16.48;;;9.60;95.40;;;;;;5065004;28;20647;-68
2022/05/02 05:35:17;;;;;;;25.52;16.17;;;9.60;95.50;;;;;;5068483;28;20206;-67
2022/05/02 05:38:36;;;;;;;22.67;15.57;;;9.70;95.60;;;;;;5067144;28;20225;-68
2022/05/02 05:41:28;;;;;;;22.63;16.30;;;9.70;95.60;;;;;;5052080;28;20190;-70
2022/05/02 05:44:14;;;;;;;23.83;15.68;;;9.70;95.70;;;;;;5068607;28;20187;-66
2022/05/02 05:47:09;;;;;;;25.13;16.15;;;9.70;95.70;;;;;;5068919;28;20191;-68
2022/05/02 05:50:07;;;;;;;25.30;15.70;;;9.80;95.80;;;;;;5056642;28;20254;-67
2022/05/02 05:53:15;;;;;;;22.35;15.13;;;9.80;95.90;;;;;;5067183;28;20277;-69
2022/05/02 05:55:56;;;;;;;18.67;14.15;;;9.80;95.90;;;;;;5065602;28;20214;-69
2022/05/02 05:58:46;;;;;;;20.73;14.70;;;9.90;96.00;;;;;;5067173;28;20202;-72
2022/05/02 06:01:14;;;;;;;24.90;15.68;;;9.90;96.00;;;;;;5052079;28;20179;-66
2022/05/02 06:04:03;;;;;;;21.30;14.77;;;9.90;96.00;;;;;;5065826;28;20185;-68
2022/05/02 06:06:29;;;;;;;20.10;14.02;;;10.00;96.10;;;;;;5069250;28;20635;-67
2022/05/02 06:08:59;;;;;;;24.25;13.13;;;10.00;96.10;;;;;;5065247;28;20193;-69
2022/05/02 06:11:26;;;;;;;19.58;13.25;;;10.10;96.20;;;;;;5051943;28;20603;-70
2022/05/02 06:13:54;;;;;;;20.00;13.10;;;10.10;96.10;;;;;;5067768;28;20191;-68
2022/05/02 06:19:38;;;;;;;19.20;13.68;;;10.20;96.20;;;;;;5067410;28;20221;-69
2022/05/02 06:22:05;;;;;;;21.70;14.30;;;10.20;96.10;;;;;;5064673;28;20693;-69
2022/05/02 06:24:32;;;;;;;21.05;13.45;;;10.20;96.10;;;;;;5066369;28;20212;-69
2022/05/02 06:27:01;;;;;;;17.88;13.77;;;10.30;96.20;;;;;;5063708;28;20218;-69
2022/05/02 06:29:28;;;;;;;23.67;13.60;;;10.40;96.20;;;;;;5064122;28;20609;-69
2022/05/02 06:31:58;;;;;;;17.77;12.57;;;10.30;96.20;;;;;;5066417;28;20314;-69
2022/05/02 06:34:27;;;;;;;21.27;13.10;;;10.40;96.20;;;;;;5063797;28;20676;-70
2022/05/02 06:37:28;;;;;;;19.70;14.95;;;10.40;96.20;;;;;;5060483;28;20419;-68
2022/05/02 06:40:12;;;;;;;21.02;14.60;;;11.00;96.10;;;;;;5058409;28;20483;-68
2022/05/02 06:42:37;;;;;;;21.15;14.50;;;11.40;95.50;;;;;;5060484;28;20438;-68
2022/05/02 06:45:24;;;;;;;23.45;15.80;;;11.70;95.00;;;;;;5062658;28;20449;-67
2022/05/02 06:48:15;;;;;;;15.18;12.70;;;11.80;94.80;;;;;;5063041;28;20411;-66
2022/05/02 06:50:47;;;;;;;17.13;12.77;;;12.00;93.80;;;;;;5064066;28;20423;-67
2022/05/02 06:53:30;;;;;;;16.77;12.32;;;12.10;93.10;;;;;;5064306;28;20411;-68
2022/05/02 06:56:31;;;;;;;18.65;13.27;;;12.20;92.50;;;;;;5065452;28;20836;-69
2022/05/02 06:59:03;;;;;;;15.38;11.57;;;12.30;91.50;;;;;;5064465;28;20442;-69
2022/05/02 07:01:48;;;;;;;16.30;11.18;;;12.50;91.80;;;;;;5063676;28;20181;-68
2022/05/02 07:04:31;;;;;;;17.85;12.32;;;12.10;92.20;;;;;;5066247;28;20220;-68
2022/05/02 07:07:21;;;;;;;19.23;13.52;;;11.90;92.70;;;;;;5060186;28;20191;-68
2022/05/02 07:09:52;;;;;;;16.75;11.13;;;11.70;92.90;;;;;;5049173;28;20193;-69
2022/05/02 07:12:18;;;;;;;17.73;11.75;;;11.70;93.10;;;;;;5063104;28;20182;-69
2022/05/02 07:15:01;;;;;;;18.75;13.05;;;11.60;93.10;;;;;;5069077;28;20583;-70
2022/05/02 07:17:50;;;;;;;16.35;12.27;;;11.60;93.10;;;;;;5066020;28;20183;-67
2022/05/02 07:20:22;;;;;;;17.38;12.82;;;11.60;93.10;;;;;;5066236;28;20189;-67
2022/05/02 07:23:13;;;;;;;16.55;11.88;;;11.60;93.10;;;;;;5069474;28;20208;-68
2022/05/02 07:25:47;;;;;;;15.20;11.50;;;11.60;93.00;;;;;;5067485;28;20236;-69
2022/05/02 07:28:15;;;;;;;16.55;11.43;;;11.60;93.00;;;;;;5065038;28;20549;-69
2022/05/02 07:30:42;;;;;;;17.23;10.73;;;11.60;92.90;;;;;;5069495;28;20226;-69
2022/05/02 07:33:08;;;;;;;14.85;10.50;;;11.60;92.80;;;;;;5049992;28;20227;-69
2022/05/02 07:35:35;;;;;;;15.73;11.45;;;11.70;92.60;;;;;;5069087;28;20213;-68
2022/05/02 07:38:02;;;;;;;23.90;13.18;;;11.70;92.60;;;;;;5068554;28;20666;-69
2022/05/02 07:40:29;;;;;;;13.75;10.85;;;11.80;92.50;;;;;;5050559;28;20253;-69
2022/05/02 07:42:56;;;;;;;17.70;10.30;;;11.90;92.50;;;;;;5066710;28;20182;-68
2022/05/02 07:45:27;;;;;;;16.45;10.32;;;11.90;92.50;;;;;;5067842;28;20482;-69
2022/05/02 07:47:54;;;;;;;18.55;10.20;;;12.00;92.40;;;;;;5065497;28;20182;-69
2022/05/02 07:50:21;;;;;;;22.48;11.90;;;12.00;92.30;;;;;;5066309;28;20187;-68
2022/05/02 07:52:51;;;;;;;15.93;11.90;;;12.10;92.30;;;;;;5069204;28;20675;-68
2022/05/02 07:55:21;;;;;;;16.60;10.52;;;12.20;92.40;;;;;;5065318;28;20202;-68
2022/05/02 07:57:48;;;;;;;17.85;11.23;;;12.20;92.30;;;;;;5066985;28;20187;-69
2022/05/02 08:00:14;;;;;;;16.60;10.77;;;12.30;92.20;;;;;;5067946;28;20175;-68
2022/05/02 08:02:41;;;;;;;13.27;9.32;;;12.40;92.20;;;;;;5066639;28;20186;-70
2022/05/02 08:05:07;;;;;;;14.27;9.90;;;12.50;92.00;;;;;;5066963;28;20209;-68
2022/05/02 08:07:43;;;;;;;13.70;9.57;;;12.50;91.80;;;;;;5049504;28;20190;-68
2022/05/02 08:10:24;;;;;;;12.32;9.05;;;12.60;91.80;;;;;;5065538;28;20457;-68
2022/05/02 08:12:49;;;;;;;;;;;13.60;88.50;;;;;;5064968;28;20481;-68
2022/05/02 08:15:34;;;;;;;;;;;14.60;84.70;;;;;;5065458;28;20325;-68
2022/05/02 08:18:35;;;;;;;9.15;7.40;;;15.80;78.80;;;;;;5067340;28;20413;-69
2022/05/02 08:21:20;;;;;;;;;;;17.50;66.50;;;;;;5065657;28;20419;-68
2022/05/02 08:27:32;;;;;;;10.75;6.30;;;19.70;53.50;;;;;;5063379;28;20899;-68
2022/05/02 08:30:15;;;;;;;9.63;6.78;;;19.80;52.30;;;;;;5064857;28;20418;-68
2022/05/02 08:33:01;;;;;;;9.30;7.30;;;19.60;52.80;;;;;;5065745;28;20896;-69
2022/05/02 08:35:50;;;;;;;10.88;7.07;;;19.50;54.30;;;;;;5063117;28;20483;-67
2022/05/02 08:38:40;;;;;;;9.45;8.07;;;19.30;54.70;;;;;;5063698;28;20788;-68
2022/05/02 08:41:08;;;;;;;9.43;7.30;;;19.20;56.70;;;;;;5063685;28;20420;-68
2022/05/02 08:44:14;;;;;;;16.77;8.48;;;19.60;56.50;;;;;;5064599;28;20527;-69
2022/05/02 08:47:10;;;;;;;14.35;7.22;;;20.20;55.30;;;;;;5064415;28;20457;-69
2022/05/02 08:49:38;;;;;;;21.23;7.40;;;21.10;51.40;;;;;;5065200;28;20419;-68
2022/05/02 08:52:07;;;;;;;16.40;7.35;;;22.30;49.40;;;;;;5058534;28;20414;-69
2022/05/02 08:54:50;;;;;;;11.57;6.20;;;23.40;45.50;;;;;;5063765;28;20443;-69
2022/05/02 08:57:42;;;;;;;8.80;6.67;;;24.70;42.50;;;;;;5061800;28;20416;-66
2022/05/02 09:00:11;;;;;;;17.02;6.20;;;25.80;39.00;;;;;;5058059;28;22983;-66
2022/05/02 09:02:55;;;;;;;8.10;5.87;;;26.70;37.40;;;;;;5063379;28;20460;-66
2022/05/02 09:05:58;;;;;;;9.32;5.85;;;27.20;35.90;;;;;;5064272;28;21017;-69
2022/05/02 09:09:01;;;;;;;29.65;7.35;;;27.80;35.10;;;;;;5062027;28;20464;-66
2022/05/02 09:11:33;;;;;;;;;;;28.50;34.00;;;;;;5060157;28;20403;-68
2022/05/02 09:14:17;;;;;;;;;;;29.00;32.60;;;;;;5065410;28;19908;-66
2022/05/02 09:16:57;;;;;;;;;;;29.50;31.70;;;;;;5066399;28;19944;-67
2022/05/02 09:19:31;;;;;;;;;;;30.00;30.20;;;;;;5067619;28;19962;-68
2022/05/02 09:22:15;;;;;;;;;;;30.40;29.40;;;;;;5066501;28;20444;-65
2022/05/02 09:24:44;;;;;;;;;;;30.80;29.10;;;;;;5068527;28;20386;-67
2022/05/02 09:27:30;;;;;;;;;;;31.20;28.90;;;;;;5062090;28;19912;-67
2022/05/02 09:29:56;;;;;;;;;;;31.60;28.00;;;;;;5068975;28;20041;-68
2022/05/02 09:32:46;;;;;;;4.50;4.10;;;32.00;27.30;;;;;;5063544;28;20388;-68
2022/05/02 09:35:17;;;;;;;7.15;4.05;;;30.70;29.10;;;;;;5068639;28;20339;-68
2022/05/02 09:38:03;;;;;;;4.38;3.95;;;30.00;30.30;;;;;;5070392;28;20197;-68
2022/05/02 09:40:41;;;;;;;7.45;5.00;;;29.60;31.20;;;;;;5062259;28;20194;-67
2022/05/02 09:50:02;;;;;;;5.80;4.10;;;33.50;25.20;;;;;;5067335;28;20411;-69
2022/05/02 09:52:40;;;;;;;6.60;4.80;;;34.20;23.80;;;;;;5066342;28;21909;-65
2022/05/02 09:58:15;;;;;;;;;;;35.30;23.40;;;;;;5059691;28;20411;-67
2022/05/02 10:01:07;;;;;;;;;;;36.00;23.00;;;;;;5069480;28;19916;-66
2022/05/02 10:03:34;;;;;;;;;;;36.60;22.70;;;;;;5068251;28;19908;-67
2022/05/02 10:06:22;;;;;;;;;;;37.30;22.10;;;;;;5068394;28;20274;-67
2022/05/02 10:08:51;;;;;;;;;;;37.80;21.70;;;;;;5063989;28;19951;-65
2022/05/02 10:11:42;;;;;;;;;;;38.40;21.00;;;;;;5068096;28;20442;-66
2022/05/02 10:14:46;;;;;;;5.82;4.10;;;38.80;20.50;;;;;;5063561;28;20415;-67
2022/05/02 10:17:17;;;;;;;5.85;4.00;;;39.10;19.80;;;;;;5065251;28;20409;-68
2022/05/02 10:20:05;;;;;;;5.93;4.97;;;37.90;20.60;;;;;;5066629;28;20479;-67
2022/05/02 10:22:47;;;;;;;7.05;5.10;;;36.10;21.90;;;;;;5064473;28;20568;-68
2022/05/02 10:25:35;;;;;;;6.93;5.18;;;34.40;22.90;;;;;;5067473;28;20434;-68
2022/05/02 10:28:32;;;;;;;6.90;4.50;;;33.00;24.50;;;;;;5067618;28;20411;-67
2022/05/02 10:31:09;;;;;;;7.57;5.40;;;31.70;25.80;;;;;;5064251;28;20419;-68
2022/05/02 10:33:45;;;;;;;;;;;30.70;26.00;;;;;;5067643;28;20407;-68
2022/05/02 10:36:12;;;;;;;7.57;5.03;;;30.10;26.70;;;;;;5063038;28;20376;-67
2022/05/02 10:39:01;;;;;;;8.55;5.47;;;29.30;27.40;;;;;;5065050;28;20404;-68
2022/05/02 10:41:30;;;;;;;7.95;5.40;;;28.90;27.70;;;;;;5066352;28;20492;-69
2022/05/02 10:44:00;;;;;;;;;;;28.70;28.00;;;;;;5070685;28;20550;-69
2022/05/02 10:46:26;;;;;;;;;;;28.20;28.60;;;;;;5066344;28;19913;-69
2022/05/02 10:48:54;;;;;;;;;;;27.90;29.30;;;;;;5066598;28;19916;-69
2022/05/02 10:51:32;;;;;;;;;;;27.70;29.70;;;;;;5067392;28;19991;-69
2022/05/02 10:54:01;;;;;;;;;;;27.50;29.90;;;;;;5069448;28;19920;-69
2022/05/02 10:56:29;;;;;;;;;;;27.50;30.10;;;;;;5062409;28;20854;-69
2022/05/02 10:58:59;;;;;;;;;;;27.40;30.30;;;;;;5066274;28;20293;-67
2022/05/02 11:01:44;;;;;;;;;;;27.50;30.70;;;;;;5066111;28;20379;-65
2022/05/02 11:04:17;;;;;;;;;;;27.60;30.70;;;;;;5065563;28;19908;-65
2022/05/02 11:07:00;;;;;;;;;;;27.70;30.90;;;;;;5059081;28;20403;-65
2022/05/02 11:09:29;;;;;;;;;;;27.90;30.90;;;;;;5067075;28;19908;-64
2022/05/02 11:11:55;;;;;;;;;;;28.10;31.10;;;;;;5063940;28;19927;-65
2022/05/02 11:14:39;;;;;;;;;;;28.20;30.80;;;;;;5064630;28;19912;-66
2022/05/02 11:17:25;;;;;;;;;;;28.50;30.50;;;;;;5060924;28;20567;-67
2022/05/02 11:22:51;;;;;;;;;;;30.40;27.90;;;;;;5066551;28;19917;-65
2022/05/02 11:25:20;;;;;;;;;;;30.90;27.50;;;;;;5063435;28;19923;-68
2022/05/02 11:27:46;;;;;;;;;;;31.00;26.80;;;;;;5058609;28;19923;-67
2022/05/02 11:30:12;;;;;;;;;;;31.00;27.10;;;;;;5063793;28;20615;-66
2022/05/02 11:33:02;;;;;;;;;;;30.90;26.90;;;;;;5061613;28;19983;-67
2022/05/02 11:35:29;;;;;;;;;;;30.80;26.50;;;;;;5061753;28;19923;-67
2022/05/02 11:38:15;;;;;;;;;;;30.60;27.80;;;;;;5057350;28;19924;-67
2022/05/02 11:40:53;;;;;;;;;;;30.30;28.00;;;;;;5033549;28;19970;-68
2022/05/02 11:43:21;;;;;;;;;;;30.20;27.20;;;;;;5062050;28;19912;-65
2022/05/02 11:45:56;;;;;;;;;;;30.00;28.20;;;;;;5066502;28;19922;-66
2022/05/02 11:48:40;;;;;;;;;;;29.80;28.20;;;;;;5067312;28;19948;-67
2022/05/02 11:51:07;;;;;;;;;;;29.70;27.20;;;;;;5063453;28;19997;-66
2022/05/02 11:53:35;;;;;;;;;;;29.60;29.00;;;;;;5065337;28;20022;-64
2022/05/02 11:56:04;;;;;;;;;;;29.60;29.30;;;;;;5067462;28;20373;-65
2022/05/02 11:58:42;;;;;;;;;;;29.40;29.50;;;;;;5066858;28;19915;-68
2022/05/02 12:01:10;;;;;;;;;;;29.30;30.00;;;;;;5063687;28;19908;-66
2022/05/02 12:03:50;;;;;;;;;;;29.20;29.40;;;;;;5069940;28;19908;-68
2022/05/02 12:06:16;;;;;;;;;;;29.20;29.30;;;;;;5065389;28;19924;-67
2022/05/02 12:08:44;;;;;;;;;;;29.10;29.50;;;;;;5067482;28;19919;-65
2022/05/02 12:11:14;;;;;;;;;;;29.00;29.30;;;;;;5064095;28;20500;-67
2022/05/02 12:13:42;;;;;;;;;;;28.80;29.30;;;;;;5067846;28;19908;-68
2022/05/02 12:16:12;;;;;;;;;;;28.70;29.70;;;;;;5066174;28;20374;-68
2022/05/02 12:18:38;;;;;;;;;;;28.70;30.40;;;;;;5069251;28;20659;-65
2022/05/02 12:21:05;;;;;;;;;;;28.60;30.30;;;;;;5065943;28;19973;-65
2022/05/02 12:23:33;;;;;;;;;;;28.50;30.10;;;;;;5062156;28;19913;-66
2022/05/02 12:25:59;;;;;;;;;;;28.30;30.40;;;;;;5064961;28;19916;-68
2022/05/02 12:28:38;;;;;;;;;;;28.30;30.70;;;;;;5059360;28;19913;-66
2022/05/02 12:31:06;;;;;;;;;;;28.30;30.90;;;;;;5068426;28;19920;-66
2022/05/02 12:33:32;;;;;;;;;;;28.40;31.10;;;;;;5068986;28;19912;-68
2022/05/02 12:35:59;;;;;;;;;;;28.40;31.00;;;;;;5067178;28;19923;-64
2022/05/02 12:38:25;;;;;;;;;;;28.40;30.60;;;;;;5065211;28;19919;-66
2022/05/02 12:40:52;;;;;;;;;;;28.30;31.10;;;;;;5068825;28;19936;-66
2022/05/02 12:43:29;;;;;;;;;;;28.30;31.10;;;;;;5063481;28;19935;-69
2022/05/02 12:45:55;;;;;;;;;;;28.30;31.20;;;;;;5067817;28;19912;-67
2022/05/02 12:48:23;;;;;;;;;;;28.40;31.40;;;;;;5066273;28;19912;-67
2022/05/02 12:50:50;;;;;;;;;;;28.40;31.10;;;;;;5068295;28;20341;-67
2022/05/02 12:56:08;;;;;;;;;;;28.60;31.30;;;;;;5067922;28;19912;-68
2022/05/02 13:01:22;;;;;;;;;;;28.70;31.60;;;;;;5068340;28;19912;-68
2022/05/02 13:03:55;;;;;;;;;;;28.70;31.30;;;;;;5070259;28;19909;-67
2022/05/02 13:06:21;;;;;;;;;;;28.60;30.80;;;;;;5071667;28;19940;-66
2022/05/02 13:08:46;;;;;;;;;;;28.60;30.50;;;;;;5067453;28;19927;-66
2022/05/02 13:11:24;;;;;;;;;;;28.60;30.70;;;;;;5070870;28;19908;-65
2022/05/02 13:13:52;;;;;;;;;;;28.60;30.70;;;;;;5069242;28;19908;-69
2022/05/02 13:16:21;;;;;;;;;;;28.70;30.90;;;;;;5072904;28;20009;-66
2022/05/02 13:18:47;;;;;;;;;;;28.70;30.70;;;;;;5071474;28;19916;-66
2022/05/02 13:21:13;;;;;;;;;;;28.70;30.30;;;;;;5072006;28;19915;-69
2022/05/02 13:23:40;;;;;;;;;;;28.70;30.60;;;;;;5069837;28;19909;-67
2022/05/02 13:26:19;;;;;;;;;;;28.60;30.20;;;;;;5067188;28;19908;-68
2022/05/02 13:29:04;;;;;;;;;;;28.60;30.00;;;;;;5070549;28;19915;-66
2022/05/02 13:31:41;;;;;;;;;;;28.60;30.20;;;;;;5071839;28;20365;-68
2022/05/02 13:34:11;;;;;;;;;;;28.40;30.50;;;;;;5068962;28;19961;-67
2022/05/02 13:36:40;;;;;;;;;;;28.40;30.70;;;;;;5070609;28;19924;-67
2022/05/02 13:39:09;;;;;;;;;;;28.40;30.40;;;;;;5071018;28;19965;-68
2022/05/02 13:41:48;;;;;;;;;;;28.30;30.00;;;;;;5069681;28;20285;-68
2022/05/02 13:44:13;;;;;;;;;;;28.20;29.90;;;;;;5070497;28;20309;-69
2022/05/02 13:46:48;;;;;;;;;;;28.20;30.30;;;;;;5067438;28;19908;-67
2022/05/02 13:49:14;;;;;;;;;;;28.10;30.10;;;;;;5071304;28;20317;-66
2022/05/02 13:51:48;;;;;;;;;;;28.10;30.00;;;;;;5070967;28;19954;-65
2022/05/02 13:54:26;;;;;;;;;;;28.00;30.00;;;;;;5070588;28;19989;-68
2022/05/02 13:56:58;;;;;;;;;;;27.90;30.00;;;;;;5070515;28;19919;-65
2022/05/02 13:59:27;;;;;;;;;;;27.80;30.00;;;;;;5071022;28;19977;-67